Airfield :
LOGIN :

Register | Disclaimer

   EN    FR    IT 

 










Legend :    VFR   Marginal VFR   IFR   Intensive IFR   Very Intensive IFR
Visi :
Ceiling :
>= 8 km
>= 3000ft
5 to 8 km
1000 to 3000 ft
1500m to 5 km
500 to 1000 ft
800 to 1500m
200 to 500 ft
< 800m
< 200 ft
Symbols :   Thunderstorms  Fog  Heavy snow  Heavy precipitations  Wind > 20 kt
SIGMETs :     Misc.  Thunderstorms  Icing  Turbulence  Mountain Waves  Volcanic Ashes







- Airport Elevation : 52 ft
- IATA code : IOM
- Download approach charts


EGNS - Isle of Man

CURRENT METAR :
  • 220550Z 26011KT 220V290 9999 SCT025 OVC030 08/04 Q1005

EXPIRED METARs :
  • 220450Z 26013KT 230V290 9999 BKN048 08/05 Q1004
  • 220350Z 26016G26KT 230V290 9999 OVC045 08/05 Q1004

TAF TAF EGNS
Valid from the 22 at 06:00 until the 22 at 15:00 UTC


220500Z 2206/2215 27015KT 9999 FEW014 BKN030
No reported NOTAMs for that airfield.
2 SIGMETs reported for the London FIR (EGTT) :
 
Severe turbulence
EGTT SIGMET 02 VALID 220600/220900 EGRR
EGTT LONDON FIR SEV TURB OBS WI N5102 W00615 - N5008 W00406 - N4928 W00514 - N5021 W00707 - N5102 W00615 FL300/390 MOV E 15KT WKN=
Severe mountain waves
EGTT SIGMET 01 VALID 220230/220630 EGRR
EGTT LONDON FIR SEV MTW FCST WI N5500 W00348 - N5500 E00025 - N5320 E00143 - N5309 W00144 - N5500 W00348 FL040/270 STNR NC=



MET'MAP, your aeronautical weather chart ! - Copyright ORBIFLY December 2007 - Disclaimer

ORBIFLY MET'MAP TEAM :

Programming & Development : Alexandra Zaïnal
Concept & Development : Baudouin d'Aumeries
Co-Development & Prog : Marc-Olivier Méhu
Technical & hardware support : Manuel Goepfert

Contact : metmap@orbifly.com




SOURCES & CREDITS :

   NOAA